CheckWX is a tool to help pilots better visualize weather data.  It is not intended as a substitute for an official pre-flight weather briefing.

04:57:34 UTC

KFDW METAR
Fairfield County Airport
Winnsboro, South Carolina, USA
Current

23 mins ago

KFDW 240435Z AUTO 00000KT 7SM CLR 17/17 A2996 RMK AO1
Observed
Jul-24 @ 04:35 UTC
Visibility
7 SM
Flight Rules
VFR
Cloud Levels
  • Clear skies
Temperature
17°C / 63°F
Dewpoint
17°C / 63°F
Humidity
100%
Altimeter
29.96" Hg
Pressure
1014.52 hPa
Previous

43 mins ago

KFDW 240415Z AUTO 00000KT 10SM CLR 17/17 A2996 RMK AO1
Observed
Jul-24 @ 04:15 UTC
Visibility
10 SM
Flight Rules
VFR
Cloud Levels
  • Clear skies
Temperature
17°C / 63°F
Dewpoint
17°C / 63°F
Humidity
100%
Altimeter
29.96" Hg
Pressure
1014.52 hPa
Previous

1 hour ago

KFDW 240355Z AUTO 00000KT 10SM SCT120 17/17 A2996 RMK AO1
Observed
Jul-24 @ 03:55 UTC
Visibility
10 SM
Flight Rules
VFR
Cloud Levels
  • Scattered at 12,000' AGL
Temperature
17°C / 63°F
Dewpoint
17°C / 63°F
Humidity
100%
Altimeter
29.96" Hg
Pressure
1014.52 hPa